sensor_id;sensor_type;location;lat;lon;timestamp;P1;durP1;ratioP1;P2;durP2;ratioP2
11791;SDS011;5953;52.372;9.918;2023-02-28T00:01:11;4.77;;;3.47;;
11791;SDS011;5953;52.372;9.918;2023-02-28T00:03:39;7.27;;;3.10;;
11791;SDS011;5953;52.372;9.918;2023-02-28T00:06:07;3.63;;;2.90;;
11791;SDS011;5953;52.372;9.918;2023-02-28T00:08:36;4.43;;;2.80;;
11791;SDS011;5953;52.372;9.918;2023-02-28T00:11:05;3.27;;;2.70;;
11791;SDS011;5953;52.372;9.918;2023-02-28T00:13:37;6.07;;;3.00;;
11791;SDS011;5953;52.372;9.918;2023-02-28T00:16:06;3.73;;;2.90;;
11791;SDS011;5953;52.372;9.918;2023-02-28T00:18:36;5.47;;;3.03;;
11791;SDS011;5953;52.372;9.918;2023-02-28T00:21:05;5.77;;;3.00;;
11791;SDS011;5953;52.372;9.918;2023-02-28T00:23:33;3.77;;;2.80;;
11791;SDS011;5953;52.372;9.918;2023-02-28T00:26:02;5.07;;;2.70;;
11791;SDS011;5953;52.372;9.918;2023-02-28T00:28:30;4.73;;;3.03;;
11791;SDS011;5953;52.372;9.918;2023-02-28T00:30:59;5.27;;;3.20;;
11791;SDS011;5953;52.372;9.918;2023-02-28T00:33:27;7.17;;;3.10;;
11791;SDS011;5953;52.372;9.918;2023-02-28T00:36:05;3.80;;;2.70;;
11791;SDS011;5953;52.372;9.918;2023-02-28T00:38:35;4.33;;;3.10;;
11791;SDS011;5953;52.372;9.918;2023-02-28T00:41:04;5.43;;;3.13;;
11791;SDS011;5953;52.372;9.918;2023-02-28T00:43:32;4.13;;;2.93;;
11791;SDS011;5953;52.372;9.918;2023-02-28T00:46:02;4.37;;;3.20;;
11791;SDS011;5953;52.372;9.918;2023-02-28T00:48:31;4.20;;;2.60;;
11791;SDS011;5953;52.372;9.918;2023-02-28T00:50:59;4.57;;;3.00;;
11791;SDS011;5953;52.372;9.918;2023-02-28T00:53:27;4.60;;;2.80;;
11791;SDS011;5953;52.372;9.918;2023-02-28T00:55:55;5.53;;;3.07;;
11791;SDS011;5953;52.372;9.918;2023-02-28T00:58:24;4.40;;;3.27;;
11791;SDS011;5953;52.372;9.918;2023-02-28T01:00:52;3.87;;;2.83;;
11791;SDS011;5953;52.372;9.918;2023-02-28T01:03:22;4.20;;;2.97;;
11791;SDS011;5953;52.372;9.918;2023-02-28T01:05:51;5.30;;;2.90;;
11791;SDS011;5953;52.372;9.918;2023-02-28T01:08:21;5.77;;;2.70;;
11791;SDS011;5953;52.372;9.918;2023-02-28T01:10:48;9.00;;;3.80;;
11791;SDS011;5953;52.372;9.918;2023-02-28T01:13:16;5.33;;;3.10;;
11791;SDS011;5953;52.372;9.918;2023-02-28T01:15:45;3.80;;;2.63;;
11791;SDS011;5953;52.372;9.918;2023-02-28T01:18:17;4.30;;;2.93;;
11791;SDS011;5953;52.372;9.918;2023-02-28T01:20:47;4.00;;;3.00;;
11791;SDS011;5953;52.372;9.918;2023-02-28T01:23:18;6.87;;;3.73;;
11791;SDS011;5953;52.372;9.918;2023-02-28T01:25:47;4.70;;;3.23;;
11791;SDS011;5953;52.372;9.918;2023-02-28T01:28:15;5.30;;;3.07;;
11791;SDS011;5953;52.372;9.918;2023-02-28T01:30:47;4.67;;;3.20;;
11791;SDS011;5953;52.372;9.918;2023-02-28T01:33:15;6.73;;;2.87;;
11791;SDS011;5953;52.372;9.918;2023-02-28T01:35:43;5.90;;;3.07;;
11791;SDS011;5953;52.372;9.918;2023-02-28T01:38:12;4.00;;;3.00;;
11791;SDS011;5953;52.372;9.918;2023-02-28T01:40:48;4.10;;;2.97;;
11791;SDS011;5953;52.372;9.918;2023-02-28T01:43:19;7.23;;;3.07;;
11791;SDS011;5953;52.372;9.918;2023-02-28T01:45:51;5.63;;;3.10;;
11791;SDS011;5953;52.372;9.918;2023-02-28T01:48:20;4.60;;;2.87;;
11791;SDS011;5953;52.372;9.918;2023-02-28T01:50:50;7.50;;;3.40;;
11791;SDS011;5953;52.372;9.918;2023-02-28T01:53:21;6.60;;;3.50;;
11791;SDS011;5953;52.372;9.918;2023-02-28T01:55:54;6.10;;;3.10;;
11791;SDS011;5953;52.372;9.918;2023-02-28T01:58:22;4.30;;;2.87;;
11791;SDS011;5953;52.372;9.918;2023-02-28T02:00:50;5.43;;;2.93;;
11791;SDS011;5953;52.372;9.918;2023-02-28T02:03:19;4.20;;;3.07;;
11791;SDS011;5953;52.372;9.918;2023-02-28T02:05:48;7.47;;;3.17;;
11791;SDS011;5953;52.372;9.918;2023-02-28T02:08:28;3.53;;;2.63;;
11791;SDS011;5953;52.372;9.918;2023-02-28T02:10:56;4.97;;;2.73;;
11791;SDS011;5953;52.372;9.918;2023-02-28T02:13:33;5.93;;;3.20;;
11791;SDS011;5953;52.372;9.918;2023-02-28T02:16:17;6.50;;;2.90;;
11791;SDS011;5953;52.372;9.918;2023-02-28T02:18:57;4.73;;;3.30;;
11791;SDS011;5953;52.372;9.918;2023-02-28T02:21:40;6.80;;;2.73;;
11791;SDS011;5953;52.372;9.918;2023-02-28T02:27:26;6.53;;;2.83;;
11791;SDS011;5953;52.372;9.918;2023-02-28T02:36:13;7.93;;;3.33;;
11791;SDS011;5953;52.372;9.918;2023-02-28T02:38:47;4.10;;;3.00;;
11791;SDS011;5953;52.372;9.918;2023-02-28T02:41:22;7.40;;;3.10;;
11791;SDS011;5953;52.372;9.918;2023-02-28T02:43:56;6.73;;;3.70;;
11791;SDS011;5953;52.372;9.918;2023-02-28T02:46:30;4.80;;;3.03;;
11791;SDS011;5953;52.372;9.918;2023-02-28T02:49:02;5.60;;;3.30;;
11791;SDS011;5953;52.372;9.918;2023-02-28T02:51:35;5.30;;;3.47;;
11791;SDS011;5953;52.372;9.918;2023-02-28T02:54:07;7.73;;;3.30;;
11791;SDS011;5953;52.372;9.918;2023-02-28T02:56:39;4.37;;;3.33;;
11791;SDS011;5953;52.372;9.918;2023-02-28T02:59:11;5.20;;;3.37;;
11791;SDS011;5953;52.372;9.918;2023-02-28T03:01:41;5.40;;;3.03;;
11791;SDS011;5953;52.372;9.918;2023-02-28T03:04:10;4.83;;;3.43;;
11791;SDS011;5953;52.372;9.918;2023-02-28T03:06:42;3.63;;;3.00;;
11791;SDS011;5953;52.372;9.918;2023-02-28T03:09:10;5.10;;;3.60;;
11791;SDS011;5953;52.372;9.918;2023-02-28T03:11:38;4.53;;;3.03;;
11791;SDS011;5953;52.372;9.918;2023-02-28T03:14:14;5.47;;;3.13;;
11791;SDS011;5953;52.372;9.918;2023-02-28T03:20:15;3.67;;;3.23;;
11791;SDS011;5953;52.372;9.918;2023-02-28T03:22:52;8.03;;;3.60;;
11791;SDS011;5953;52.372;9.918;2023-02-28T03:25:28;4.17;;;3.77;;
11791;SDS011;5953;52.372;9.918;2023-02-28T03:28:04;5.23;;;3.73;;
11791;SDS011;5953;52.372;9.918;2023-02-28T03:30:38;4.30;;;3.47;;
11791;SDS011;5953;52.372;9.918;2023-02-28T03:33:10;4.57;;;3.43;;
11791;SDS011;5953;52.372;9.918;2023-02-28T03:35:43;5.83;;;3.33;;
11791;SDS011;5953;52.372;9.918;2023-02-28T03:38:16;4.50;;;3.60;;
11791;SDS011;5953;52.372;9.918;2023-02-28T03:40:48;5.67;;;3.50;;
11791;SDS011;5953;52.372;9.918;2023-02-28T03:43:20;5.47;;;3.60;;
11791;SDS011;5953;52.372;9.918;2023-02-28T03:45:52;4.70;;;3.53;;
11791;SDS011;5953;52.372;9.918;2023-02-28T03:48:23;4.40;;;3.57;;
11791;SDS011;5953;52.372;9.918;2023-02-28T03:50:55;4.50;;;3.20;;
11791;SDS011;5953;52.372;9.918;2023-02-28T03:53:28;7.83;;;3.80;;
11791;SDS011;5953;52.372;9.918;2023-02-28T03:56:01;5.47;;;3.77;;
11791;SDS011;5953;52.372;9.918;2023-02-28T03:58:35;5.30;;;3.90;;
11791;SDS011;5953;52.372;9.918;2023-02-28T04:01:07;5.03;;;3.30;;
11791;SDS011;5953;52.372;9.918;2023-02-28T04:03:39;5.57;;;3.80;;
11791;SDS011;5953;52.372;9.918;2023-02-28T04:06:15;4.07;;;3.17;;
11791;SDS011;5953;52.372;9.918;2023-02-28T04:08:46;6.33;;;4.07;;
11791;SDS011;5953;52.372;9.918;2023-02-28T04:11:17;6.13;;;3.33;;
11791;SDS011;5953;52.372;9.918;2023-02-28T04:13:48;5.07;;;3.70;;
11791;SDS011;5953;52.372;9.918;2023-02-28T04:16:16;5.27;;;3.30;;
11791;SDS011;5953;52.372;9.918;2023-02-28T04:19:00;5.90;;;3.50;;
11791;SDS011;5953;52.372;9.918;2023-02-28T04:21:29;5.33;;;3.37;;
11791;SDS011;5953;52.372;9.918;2023-02-28T04:24:00;4.87;;;3.80;;
11791;SDS011;5953;52.372;9.918;2023-02-28T04:26:29;4.73;;;3.63;;
11791;SDS011;5953;52.372;9.918;2023-02-28T04:28:57;5.23;;;3.30;;
11791;SDS011;5953;52.372;9.918;2023-02-28T04:31:25;4.27;;;3.53;;
11791;SDS011;5953;52.372;9.918;2023-02-28T04:33:54;5.43;;;3.83;;
11791;SDS011;5953;52.372;9.918;2023-02-28T04:36:22;4.87;;;3.50;;
11791;SDS011;5953;52.372;9.918;2023-02-28T04:38:51;7.73;;;3.97;;
11791;SDS011;5953;52.372;9.918;2023-02-28T04:41:23;6.20;;;3.30;;
11791;SDS011;5953;52.372;9.918;2023-02-28T04:43:51;5.50;;;3.90;;
11791;SDS011;5953;52.372;9.918;2023-02-28T04:46:19;7.40;;;3.57;;
11791;SDS011;5953;52.372;9.918;2023-02-28T04:48:47;4.43;;;3.30;;
11791;SDS011;5953;52.372;9.918;2023-02-28T04:51:16;5.50;;;4.10;;
11791;SDS011;5953;52.372;9.918;2023-02-28T04:53:45;5.17;;;3.67;;
11791;SDS011;5953;52.372;9.918;2023-02-28T04:56:15;5.13;;;3.53;;
11791;SDS011;5953;52.372;9.918;2023-02-28T04:58:45;4.93;;;3.63;;
11791;SDS011;5953;52.372;9.918;2023-02-28T05:01:18;5.87;;;3.77;;
11791;SDS011;5953;52.372;9.918;2023-02-28T05:03:48;5.47;;;3.80;;
11791;SDS011;5953;52.372;9.918;2023-02-28T05:06:20;6.97;;;3.53;;
11791;SDS011;5953;52.372;9.918;2023-02-28T05:09:02;5.90;;;4.40;;
11791;SDS011;5953;52.372;9.918;2023-02-28T05:11:31;6.33;;;5.27;;
11791;SDS011;5953;52.372;9.918;2023-02-28T05:14:03;6.80;;;4.80;;
11791;SDS011;5953;52.372;9.918;2023-02-28T05:16:33;8.37;;;4.47;;
11791;SDS011;5953;52.372;9.918;2023-02-28T05:19:01;7.00;;;4.83;;
11791;SDS011;5953;52.372;9.918;2023-02-28T05:21:30;7.63;;;5.17;;
11791;SDS011;5953;52.372;9.918;2023-02-28T05:24:00;9.93;;;4.77;;
11791;SDS011;5953;52.372;9.918;2023-02-28T05:26:30;6.30;;;4.60;;
11791;SDS011;5953;52.372;9.918;2023-02-28T05:28:58;5.17;;;4.17;;
11791;SDS011;5953;52.372;9.918;2023-02-28T05:31:27;6.30;;;4.30;;
11791;SDS011;5953;52.372;9.918;2023-02-28T05:33:55;7.37;;;4.40;;
11791;SDS011;5953;52.372;9.918;2023-02-28T05:36:23;8.60;;;4.47;;
11791;SDS011;5953;52.372;9.918;2023-02-28T05:38:51;7.80;;;4.93;;
11791;SDS011;5953;52.372;9.918;2023-02-28T05:41:19;7.17;;;4.27;;
11791;SDS011;5953;52.372;9.918;2023-02-28T05:43:47;7.73;;;4.90;;
11791;SDS011;5953;52.372;9.918;2023-02-28T05:46:18;8.03;;;4.67;;
11791;SDS011;5953;52.372;9.918;2023-02-28T05:48:47;8.27;;;4.70;;
11791;SDS011;5953;52.372;9.918;2023-02-28T05:51:16;7.23;;;4.40;;
11791;SDS011;5953;52.372;9.918;2023-02-28T05:53:44;5.63;;;4.60;;
11791;SDS011;5953;52.372;9.918;2023-02-28T05:56:12;6.33;;;4.30;;
11791;SDS011;5953;52.372;9.918;2023-02-28T05:58:40;7.17;;;4.47;;
11791;SDS011;5953;52.372;9.918;2023-02-28T06:01:25;7.27;;;3.90;;
11791;SDS011;5953;52.372;9.918;2023-02-28T06:04:01;4.93;;;3.80;;
11791;SDS011;5953;52.372;9.918;2023-02-28T06:06:30;4.47;;;3.53;;
11791;SDS011;5953;52.372;9.918;2023-02-28T06:09:02;10.40;;;4.40;;
11791;SDS011;5953;52.372;9.918;2023-02-28T06:11:30;6.87;;;4.30;;
11791;SDS011;5953;52.372;9.918;2023-02-28T06:13:59;6.03;;;4.13;;
11791;SDS011;5953;52.372;9.918;2023-02-28T06:16:28;6.83;;;4.33;;
11791;SDS011;5953;52.372;9.918;2023-02-28T06:18:57;5.50;;;3.97;;
11791;SDS011;5953;52.372;9.918;2023-02-28T06:21:28;5.60;;;3.90;;
11791;SDS011;5953;52.372;9.918;2023-02-28T06:23:57;7.10;;;4.10;;
11791;SDS011;5953;52.372;9.918;2023-02-28T06:26:25;5.90;;;4.07;;
11791;SDS011;5953;52.372;9.918;2023-02-28T06:28:53;5.87;;;4.27;;
11791;SDS011;5953;52.372;9.918;2023-02-28T06:31:22;6.83;;;4.60;;
11791;SDS011;5953;52.372;9.918;2023-02-28T06:33:52;7.50;;;3.70;;
11791;SDS011;5953;52.372;9.918;2023-02-28T06:36:20;7.40;;;4.70;;
11791;SDS011;5953;52.372;9.918;2023-02-28T06:38:50;7.43;;;3.77;;
11791;SDS011;5953;52.372;9.918;2023-02-28T06:41:23;8.00;;;4.70;;
11791;SDS011;5953;52.372;9.918;2023-02-28T06:43:52;7.37;;;4.90;;
11791;SDS011;5953;52.372;9.918;2023-02-28T06:46:23;9.20;;;5.13;;
11791;SDS011;5953;52.372;9.918;2023-02-28T06:48:51;5.30;;;4.57;;
11791;SDS011;5953;52.372;9.918;2023-02-28T06:51:19;7.80;;;5.20;;
11791;SDS011;5953;52.372;9.918;2023-02-28T06:53:50;7.97;;;4.60;;
11791;SDS011;5953;52.372;9.918;2023-02-28T06:56:19;7.37;;;4.83;;
11791;SDS011;5953;52.372;9.918;2023-02-28T06:58:47;8.20;;;4.27;;
11791;SDS011;5953;52.372;9.918;2023-02-28T07:01:16;7.57;;;4.13;;
11791;SDS011;5953;52.372;9.918;2023-02-28T07:03:45;6.90;;;4.87;;
11791;SDS011;5953;52.372;9.918;2023-02-28T07:06:19;6.70;;;4.43;;
11791;SDS011;5953;52.372;9.918;2023-02-28T07:08:50;9.60;;;5.50;;
11791;SDS011;5953;52.372;9.918;2023-02-28T07:11:19;9.03;;;4.10;;
11791;SDS011;5953;52.372;9.918;2023-02-28T07:13:49;17.17;;;9.77;;
11791;SDS011;5953;52.372;9.918;2023-02-28T07:16:17;20.33;;;12.60;;
11791;SDS011;5953;52.372;9.918;2023-02-28T07:18:46;21.00;;;12.47;;
11791;SDS011;5953;52.372;9.918;2023-02-28T07:21:14;19.00;;;11.33;;
11791;SDS011;5953;52.372;9.918;2023-02-28T07:23:43;17.67;;;10.83;;
11791;SDS011;5953;52.372;9.918;2023-02-28T07:26:13;19.70;;;10.67;;
11791;SDS011;5953;52.372;9.918;2023-02-28T07:28:43;11.77;;;6.60;;
11791;SDS011;5953;52.372;9.918;2023-02-28T07:31:12;7.90;;;5.00;;
11791;SDS011;5953;52.372;9.918;2023-02-28T07:33:41;6.93;;;5.37;;
11791;SDS011;5953;52.372;9.918;2023-02-28T07:36:11;9.80;;;5.23;;
11791;SDS011;5953;52.372;9.918;2023-02-28T07:38:42;9.33;;;5.40;;
11791;SDS011;5953;52.372;9.918;2023-02-28T07:41:15;7.17;;;5.30;;
11791;SDS011;5953;52.372;9.918;2023-02-28T07:43:44;7.93;;;4.83;;
11791;SDS011;5953;52.372;9.918;2023-02-28T07:46:14;10.10;;;6.23;;
11791;SDS011;5953;52.372;9.918;2023-02-28T07:48:52;12.07;;;5.93;;
11791;SDS011;5953;52.372;9.918;2023-02-28T07:51:25;7.57;;;4.77;;
11791;SDS011;5953;52.372;9.918;2023-02-28T07:53:55;9.73;;;5.13;;
11791;SDS011;5953;52.372;9.918;2023-02-28T07:56:24;10.93;;;5.00;;
11791;SDS011;5953;52.372;9.918;2023-02-28T07:58:53;5.63;;;4.23;;
11791;SDS011;5953;52.372;9.918;2023-02-28T08:01:22;6.63;;;4.50;;
11791;SDS011;5953;52.372;9.918;2023-02-28T08:03:50;7.40;;;4.70;;
11791;SDS011;5953;52.372;9.918;2023-02-28T08:06:20;6.30;;;4.33;;
11791;SDS011;5953;52.372;9.918;2023-02-28T08:08:49;8.67;;;5.10;;
11791;SDS011;5953;52.372;9.918;2023-02-28T08:11:19;8.30;;;5.40;;
11791;SDS011;5953;52.372;9.918;2023-02-28T08:13:49;6.87;;;5.37;;
11791;SDS011;5953;52.372;9.918;2023-02-28T08:16:17;9.23;;;5.23;;
11791;SDS011;5953;52.372;9.918;2023-02-28T08:18:48;8.60;;;4.83;;
11791;SDS011;5953;52.372;9.918;2023-02-28T08:21:17;6.50;;;4.30;;
11791;SDS011;5953;52.372;9.918;2023-02-28T08:23:46;5.80;;;4.70;;
11791;SDS011;5953;52.372;9.918;2023-02-28T08:26:15;7.80;;;4.73;;
11791;SDS011;5953;52.372;9.918;2023-02-28T08:28:43;5.30;;;4.20;;
11791;SDS011;5953;52.372;9.918;2023-02-28T08:31:14;5.47;;;3.57;;
11791;SDS011;5953;52.372;9.918;2023-02-28T08:33:43;6.43;;;3.23;;
11791;SDS011;5953;52.372;9.918;2023-02-28T08:36:12;4.80;;;3.50;;
11791;SDS011;5953;52.372;9.918;2023-02-28T08:38:41;4.47;;;3.77;;
11791;SDS011;5953;52.372;9.918;2023-02-28T08:41:10;4.80;;;3.53;;
11791;SDS011;5953;52.372;9.918;2023-02-28T08:43:39;3.80;;;3.30;;
11791;SDS011;5953;52.372;9.918;2023-02-28T08:46:08;4.83;;;3.50;;
11791;SDS011;5953;52.372;9.918;2023-02-28T08:48:41;4.43;;;3.27;;
11791;SDS011;5953;52.372;9.918;2023-02-28T08:51:10;3.97;;;2.83;;
11791;SDS011;5953;52.372;9.918;2023-02-28T08:53:40;4.00;;;2.50;;
11791;SDS011;5953;52.372;9.918;2023-02-28T08:56:09;5.23;;;2.90;;
11791;SDS011;5953;52.372;9.918;2023-02-28T08:58:38;3.27;;;2.40;;
11791;SDS011;5953;52.372;9.918;2023-02-28T09:01:07;3.33;;;2.47;;
11791;SDS011;5953;52.372;9.918;2023-02-28T09:03:37;7.40;;;2.20;;
11791;SDS011;5953;52.372;9.918;2023-02-28T09:06:07;4.53;;;2.40;;
11791;SDS011;5953;52.372;9.918;2023-02-28T09:08:36;3.67;;;2.00;;
11791;SDS011;5953;52.372;9.918;2023-02-28T09:11:06;6.40;;;2.90;;
11791;SDS011;5953;52.372;9.918;2023-02-28T09:13:34;3.50;;;2.20;;
11791;SDS011;5953;52.372;9.918;2023-02-28T09:16:04;3.03;;;1.97;;
11791;SDS011;5953;52.372;9.918;2023-02-28T09:18:51;4.23;;;1.87;;
11791;SDS011;5953;52.372;9.918;2023-02-28T09:21:25;1.60;;;1.27;;
11791;SDS011;5953;52.372;9.918;2023-02-28T09:23:55;4.43;;;2.00;;
11791;SDS011;5953;52.372;9.918;2023-02-28T09:26:24;2.17;;;1.53;;
11791;SDS011;5953;52.372;9.918;2023-02-28T09:29:04;3.33;;;2.03;;
11791;SDS011;5953;52.372;9.918;2023-02-28T09:31:33;2.90;;;1.90;;
11791;SDS011;5953;52.372;9.918;2023-02-28T09:34:04;3.40;;;2.13;;
11791;SDS011;5953;52.372;9.918;2023-02-28T09:36:35;3.53;;;1.93;;
11791;SDS011;5953;52.372;9.918;2023-02-28T09:39:12;3.13;;;1.70;;
11791;SDS011;5953;52.372;9.918;2023-02-28T09:41:45;1.87;;;1.30;;
11791;SDS011;5953;52.372;9.918;2023-02-28T09:44:22;2.27;;;1.70;;
11791;SDS011;5953;52.372;9.918;2023-02-28T09:46:58;2.17;;;1.50;;
11791;SDS011;5953;52.372;9.918;2023-02-28T09:49:31;2.37;;;1.70;;
11791;SDS011;5953;52.372;9.918;2023-02-28T09:52:07;2.50;;;1.60;;
11791;SDS011;5953;52.372;9.918;2023-02-28T09:54:38;3.07;;;2.20;;
11791;SDS011;5953;52.372;9.918;2023-02-28T09:57:07;4.10;;;1.80;;
11791;SDS011;5953;52.372;9.918;2023-02-28T09:59:48;2.90;;;1.60;;
11791;SDS011;5953;52.372;9.918;2023-02-28T10:02:38;3.77;;;1.80;;
11791;SDS011;5953;52.372;9.918;2023-02-28T10:05:22;1.90;;;1.60;;
11791;SDS011;5953;52.372;9.918;2023-02-28T10:08:00;1.50;;;1.30;;
11791;SDS011;5953;52.372;9.918;2023-02-28T10:10:35;3.70;;;1.80;;
11791;SDS011;5953;52.372;9.918;2023-02-28T10:13:10;2.40;;;1.40;;
11791;SDS011;5953;52.372;9.918;2023-02-28T10:15:44;2.13;;;1.60;;
11791;SDS011;5953;52.372;9.918;2023-02-28T10:18:16;2.00;;;1.60;;
11791;SDS011;5953;52.372;9.918;2023-02-28T10:20:51;4.03;;;1.30;;
11791;SDS011;5953;52.372;9.918;2023-02-28T10:23:24;1.13;;;0.63;;
11791;SDS011;5953;52.372;9.918;2023-02-28T10:25:55;2.53;;;1.30;;
11791;SDS011;5953;52.372;9.918;2023-02-28T10:28:26;1.20;;;1.10;;
11791;SDS011;5953;52.372;9.918;2023-02-28T10:30:57;1.57;;;0.97;;
11791;SDS011;5953;52.372;9.918;2023-02-28T10:33:28;1.40;;;0.83;;
11791;SDS011;5953;52.372;9.918;2023-02-28T10:35:58;3.07;;;1.40;;
11791;SDS011;5953;52.372;9.918;2023-02-28T10:38:31;2.37;;;1.10;;
11791;SDS011;5953;52.372;9.918;2023-02-28T10:41:05;2.53;;;1.10;;
11791;SDS011;5953;52.372;9.918;2023-02-28T10:43:34;5.87;;;1.00;;
11791;SDS011;5953;52.372;9.918;2023-02-28T10:46:03;1.60;;;1.13;;
11791;SDS011;5953;52.372;9.918;2023-02-28T10:48:39;1.53;;;0.90;;
11791;SDS011;5953;52.372;9.918;2023-02-28T10:51:10;1.40;;;1.07;;
11791;SDS011;5953;52.372;9.918;2023-02-28T10:53:45;2.57;;;1.20;;
11791;SDS011;5953;52.372;9.918;2023-02-28T10:56:29;1.30;;;1.10;;
11791;SDS011;5953;52.372;9.918;2023-02-28T10:59:01;2.23;;;1.07;;
11791;SDS011;5953;52.372;9.918;2023-02-28T11:01:50;0.80;;;0.80;;
11791;SDS011;5953;52.372;9.918;2023-02-28T11:04:23;1.33;;;0.90;;
11791;SDS011;5953;52.372;9.918;2023-02-28T11:07:03;2.33;;;1.50;;
11791;SDS011;5953;52.372;9.918;2023-02-28T11:09:50;2.10;;;1.30;;
11791;SDS011;5953;52.372;9.918;2023-02-28T11:12:20;2.13;;;1.07;;
11791;SDS011;5953;52.372;9.918;2023-02-28T11:14:52;2.77;;;1.03;;
11791;SDS011;5953;52.372;9.918;2023-02-28T11:17:23;2.13;;;1.00;;
11791;SDS011;5953;52.372;9.918;2023-02-28T11:19:53;1.70;;;0.90;;
11791;SDS011;5953;52.372;9.918;2023-02-28T11:22:25;1.77;;;0.90;;
11791;SDS011;5953;52.372;9.918;2023-02-28T11:24:59;1.17;;;0.80;;
11791;SDS011;5953;52.372;9.918;2023-02-28T11:27:45;0.70;;;0.70;;
11791;SDS011;5953;52.372;9.918;2023-02-28T11:30:27;0.90;;;0.80;;
11791;SDS011;5953;52.372;9.918;2023-02-28T11:35:51;1.63;;;0.90;;
11791;SDS011;5953;52.372;9.918;2023-02-28T11:38:24;1.50;;;0.77;;
11791;SDS011;5953;52.372;9.918;2023-02-28T11:41:05;2.83;;;1.23;;
11791;SDS011;5953;52.372;9.918;2023-02-28T11:43:49;2.13;;;1.23;;
11791;SDS011;5953;52.372;9.918;2023-02-28T11:46:29;2.23;;;1.10;;
11791;SDS011;5953;52.372;9.918;2023-02-28T11:49:06;3.53;;;1.50;;
11791;SDS011;5953;52.372;9.918;2023-02-28T11:51:52;1.17;;;1.00;;
11791;SDS011;5953;52.372;9.918;2023-02-28T11:54:28;2.70;;;1.80;;
11791;SDS011;5953;52.372;9.918;2023-02-28T11:57:13;1.93;;;1.73;;
11791;SDS011;5953;52.372;9.918;2023-02-28T11:59:54;2.80;;;1.83;;
11791;SDS011;5953;52.372;9.918;2023-02-28T12:02:31;2.70;;;1.50;;
11791;SDS011;5953;52.372;9.918;2023-02-28T12:05:17;2.10;;;1.07;;
11791;SDS011;5953;52.372;9.918;2023-02-28T12:07:56;4.07;;;1.20;;
11791;SDS011;5953;52.372;9.918;2023-02-28T12:10:34;2.00;;;1.57;;
11791;SDS011;5953;52.372;9.918;2023-02-28T12:13:15;2.43;;;1.23;;
11791;SDS011;5953;52.372;9.918;2023-02-28T12:16:00;2.67;;;1.50;;
11791;SDS011;5953;52.372;9.918;2023-02-28T12:18:53;2.53;;;1.17;;
11791;SDS011;5953;52.372;9.918;2023-02-28T12:21:36;2.73;;;1.57;;
11791;SDS011;5953;52.372;9.918;2023-02-28T12:24:21;3.57;;;1.83;;
11791;SDS011;5953;52.372;9.918;2023-02-28T12:26:59;3.37;;;1.37;;
11791;SDS011;5953;52.372;9.918;2023-02-28T12:29:33;3.97;;;1.80;;
11791;SDS011;5953;52.372;9.918;2023-02-28T12:32:14;2.80;;;2.13;;
11791;SDS011;5953;52.372;9.918;2023-02-28T12:34:49;3.00;;;2.03;;
11791;SDS011;5953;52.372;9.918;2023-02-28T12:37:24;1.37;;;0.93;;
11791;SDS011;5953;52.372;9.918;2023-02-28T12:39:56;1.60;;;0.97;;
11791;SDS011;5953;52.372;9.918;2023-02-28T12:42:32;1.63;;;1.10;;
11791;SDS011;5953;52.372;9.918;2023-02-28T12:45:07;1.37;;;1.03;;
11791;SDS011;5953;52.372;9.918;2023-02-28T12:47:40;2.80;;;1.90;;
11791;SDS011;5953;52.372;9.918;2023-02-28T12:50:13;2.57;;;2.03;;
11791;SDS011;5953;52.372;9.918;2023-02-28T12:52:46;3.93;;;1.93;;
11791;SDS011;5953;52.372;9.918;2023-02-28T12:55:20;1.80;;;1.13;;
11791;SDS011;5953;52.372;9.918;2023-02-28T12:57:56;2.23;;;1.80;;
11791;SDS011;5953;52.372;9.918;2023-02-28T13:00:35;2.87;;;1.90;;
11791;SDS011;5953;52.372;9.918;2023-02-28T13:03:13;2.40;;;1.50;;
11791;SDS011;5953;52.372;9.918;2023-02-28T13:09:04;2.20;;;1.60;;
11791;SDS011;5953;52.372;9.918;2023-02-28T13:11:39;3.07;;;1.90;;
11791;SDS011;5953;52.372;9.918;2023-02-28T13:14:25;2.67;;;1.77;;
11791;SDS011;5953;52.372;9.918;2023-02-28T13:16:59;3.03;;;2.10;;
11791;SDS011;5953;52.372;9.918;2023-02-28T13:19:31;4.83;;;2.17;;
11791;SDS011;5953;52.372;9.918;2023-02-28T13:22:05;4.80;;;2.10;;
11791;SDS011;5953;52.372;9.918;2023-02-28T13:24:50;3.30;;;2.30;;
11791;SDS011;5953;52.372;9.918;2023-02-28T13:27:31;4.07;;;2.30;;
11791;SDS011;5953;52.372;9.918;2023-02-28T13:36:08;3.63;;;1.80;;
11791;SDS011;5953;52.372;9.918;2023-02-28T13:38:39;2.10;;;1.53;;
11791;SDS011;5953;52.372;9.918;2023-02-28T13:44:22;2.67;;;1.80;;
11791;SDS011;5953;52.372;9.918;2023-02-28T13:49:53;2.17;;;1.50;;
11791;SDS011;5953;52.372;9.918;2023-02-28T13:52:22;2.53;;;1.70;;
11791;SDS011;5953;52.372;9.918;2023-02-28T13:55:02;3.60;;;2.20;;
11791;SDS011;5953;52.372;9.918;2023-02-28T13:58:00;3.40;;;1.90;;
11791;SDS011;5953;52.372;9.918;2023-02-28T14:00:45;2.47;;;1.70;;
11791;SDS011;5953;52.372;9.918;2023-02-28T14:03:35;3.83;;;2.00;;
11791;SDS011;5953;52.372;9.918;2023-02-28T14:06:16;3.43;;;1.93;;
11791;SDS011;5953;52.372;9.918;2023-02-28T14:08:52;1.90;;;1.70;;
11791;SDS011;5953;52.372;9.918;2023-02-28T14:11:26;1.97;;;1.60;;
11791;SDS011;5953;52.372;9.918;2023-02-28T14:13:56;1.80;;;1.60;;
11791;SDS011;5953;52.372;9.918;2023-02-28T14:16:25;4.23;;;1.67;;
11791;SDS011;5953;52.372;9.918;2023-02-28T14:18:58;3.63;;;1.70;;
11791;SDS011;5953;52.372;9.918;2023-02-28T14:21:32;2.27;;;1.50;;
11791;SDS011;5953;52.372;9.918;2023-02-28T14:30:11;3.47;;;1.50;;
11791;SDS011;5953;52.372;9.918;2023-02-28T14:33:01;3.10;;;1.90;;
11791;SDS011;5953;52.372;9.918;2023-02-28T14:35:50;1.67;;;1.50;;
11791;SDS011;5953;52.372;9.918;2023-02-28T14:38:44;3.03;;;1.63;;
11791;SDS011;5953;52.372;9.918;2023-02-28T14:41:16;2.20;;;1.50;;
11791;SDS011;5953;52.372;9.918;2023-02-28T14:43:52;1.67;;;1.40;;
11791;SDS011;5953;52.372;9.918;2023-02-28T14:46:23;2.60;;;1.97;;
11791;SDS011;5953;52.372;9.918;2023-02-28T14:48:58;2.20;;;1.90;;
11791;SDS011;5953;52.372;9.918;2023-02-28T14:51:26;1.43;;;1.10;;
11791;SDS011;5953;52.372;9.918;2023-02-28T14:53:57;2.50;;;2.17;;
11791;SDS011;5953;52.372;9.918;2023-02-28T14:56:29;3.87;;;1.60;;
11791;SDS011;5953;52.372;9.918;2023-02-28T14:59:01;3.23;;;1.90;;
11791;SDS011;5953;52.372;9.918;2023-02-28T15:01:29;1.53;;;1.40;;
11791;SDS011;5953;52.372;9.918;2023-02-28T15:04:02;2.90;;;1.57;;
11791;SDS011;5953;52.372;9.918;2023-02-28T15:06:33;2.80;;;1.97;;
11791;SDS011;5953;52.372;9.918;2023-02-28T15:09:13;2.67;;;1.73;;
11791;SDS011;5953;52.372;9.918;2023-02-28T15:11:45;2.83;;;1.50;;
11791;SDS011;5953;52.372;9.918;2023-02-28T15:14:15;3.33;;;2.30;;
11791;SDS011;5953;52.372;9.918;2023-02-28T15:16:47;1.53;;;1.27;;
11791;SDS011;5953;52.372;9.918;2023-02-28T15:19:22;2.90;;;1.67;;
11791;SDS011;5953;52.372;9.918;2023-02-28T15:21:53;5.63;;;2.30;;
11791;SDS011;5953;52.372;9.918;2023-02-28T15:24:30;2.40;;;1.90;;
11791;SDS011;5953;52.372;9.918;2023-02-28T15:27:02;4.57;;;1.83;;
11791;SDS011;5953;52.372;9.918;2023-02-28T15:29:37;1.87;;;1.50;;
11791;SDS011;5953;52.372;9.918;2023-02-28T15:32:21;2.47;;;2.07;;
11791;SDS011;5953;52.372;9.918;2023-02-28T15:34:53;4.57;;;2.07;;
11791;SDS011;5953;52.372;9.918;2023-02-28T15:37:25;3.47;;;2.13;;
11791;SDS011;5953;52.372;9.918;2023-02-28T15:39:58;1.77;;;1.57;;
11791;SDS011;5953;52.372;9.918;2023-02-28T15:42:35;4.83;;;2.17;;
11791;SDS011;5953;52.372;9.918;2023-02-28T15:45:03;2.10;;;1.90;;
11791;SDS011;5953;52.372;9.918;2023-02-28T15:47:32;3.20;;;1.77;;
11791;SDS011;5953;52.372;9.918;2023-02-28T15:50:02;3.20;;;2.10;;
11791;SDS011;5953;52.372;9.918;2023-02-28T15:52:34;3.47;;;2.10;;
11791;SDS011;5953;52.372;9.918;2023-02-28T15:55:09;2.30;;;1.90;;
11791;SDS011;5953;52.372;9.918;2023-02-28T15:57:39;2.37;;;1.80;;
11791;SDS011;5953;52.372;9.918;2023-02-28T16:00:10;4.13;;;2.37;;
11791;SDS011;5953;52.372;9.918;2023-02-28T16:02:40;1.97;;;1.77;;
11791;SDS011;5953;52.372;9.918;2023-02-28T16:05:17;4.60;;;2.80;;
11791;SDS011;5953;52.372;9.918;2023-02-28T16:07:54;2.77;;;2.00;;
11791;SDS011;5953;52.372;9.918;2023-02-28T16:10:24;2.63;;;1.90;;